createdAt,value
2023-04-16T00:01:46.430Z,98030.69
2023-04-16T00:06:48.203Z,98026.63
2023-04-16T00:11:49.980Z,98028.88
2023-04-16T00:16:51.751Z,98032.75
2023-04-16T00:21:53.692Z,98041.00
2023-04-16T00:26:56.033Z,98052.78
2023-04-16T00:31:57.894Z,98046.44
2023-04-16T00:36:59.775Z,98044.63
2023-04-16T00:42:01.943Z,98052.84
2023-04-16T00:47:04.548Z,98055.75
2023-04-16T00:52:06.750Z,98063.00
2023-04-16T00:57:09.197Z,98057.47
2023-04-16T01:02:13.002Z,98056.97
2023-04-16T01:07:15.088Z,98058.41
2023-04-16T01:12:16.918Z,98062.06
2023-04-16T01:17:18.705Z,98061.72
2023-04-16T01:22:20.924Z,98054.28
2023-04-16T01:27:23.350Z,98058.78
2023-04-16T01:32:25.409Z,98060.84
2023-04-16T01:37:27.425Z,98056.97
2023-04-16T01:42:29.290Z,98066.47
2023-04-16T01:47:31.329Z,98064.06
2023-04-16T01:52:33.206Z,98063.69
2023-04-16T01:57:35.080Z,98062.53
2023-04-16T02:02:38.503Z,98063.13
2023-04-16T02:07:40.509Z,98065.34
2023-04-16T02:12:42.285Z,98069.19
2023-04-16T02:17:44.304Z,98066.91
2023-04-16T02:22:49.369Z,98074.16
2023-04-16T02:27:55.039Z,98075.41
2023-04-16T02:33:05.647Z,98082.66
2023-04-16T02:38:08.845Z,98089.56
2023-04-16T02:43:11.167Z,98086.34
2023-04-16T02:48:13.605Z,98096.66
2023-04-16T02:53:15.408Z,98098.44
2023-04-16T02:58:17.265Z,98096.16
2023-04-16T03:03:19.147Z,98098.06
2023-04-16T03:08:21.159Z,98100.66
2023-04-16T03:13:23.108Z,98100.94
2023-04-16T03:18:25.007Z,98103.31
2023-04-16T03:23:26.857Z,98104.84
2023-04-16T03:28:28.659Z,98107.88
2023-04-16T03:33:30.395Z,98120.69
2023-04-16T03:38:32.156Z,98126.44
2023-04-16T03:43:34.749Z,98133.50
2023-04-16T03:48:36.964Z,98134.09
2023-04-16T03:53:39.005Z,98140.34
2023-04-16T03:58:41.107Z,98148.53
2023-04-16T04:03:44.067Z,98156.25
2023-04-16T04:08:47.793Z,98159.13
2023-04-16T04:13:50.302Z,98169.44
2023-04-16T04:18:52.081Z,98175.41
2023-04-16T04:23:56.038Z,98168.34
2023-04-16T04:28:58.703Z,98171.47
2023-04-16T04:34:00.730Z,98176.19
2023-04-16T04:39:03.752Z,98180.00
2023-04-16T04:44:05.823Z,98185.16
2023-04-16T04:49:08.162Z,98175.66
2023-04-16T04:54:10.368Z,98182.84
2023-04-16T04:59:12.776Z,98188.38
2023-04-16T05:04:15.880Z,98190.38
2023-04-16T05:09:17.761Z,98198.88
2023-04-16T05:14:19.669Z,98197.88
2023-04-16T05:19:21.810Z,98203.66
2023-04-16T05:24:23.622Z,98206.84
2023-04-16T05:29:26.260Z,98211.94
2023-04-16T05:34:28.013Z,98218.16
2023-04-16T05:39:29.745Z,98224.66
2023-04-16T05:44:31.503Z,98227.91
2023-04-16T05:49:33.307Z,98237.94
2023-04-16T05:54:35.445Z,98230.56
2023-04-16T05:59:37.276Z,98235.94
2023-04-16T06:04:39.081Z,98245.41
2023-04-16T06:09:41.120Z,98241.97
2023-04-16T06:14:42.903Z,98243.50
2023-04-16T06:19:44.752Z,98240.84
2023-04-16T06:24:46.626Z,98251.91
2023-04-16T06:29:48.619Z,98258.91
2023-04-16T06:34:50.450Z,98259.13
2023-04-16T06:39:52.246Z,98260.66
2023-04-16T06:44:54.053Z,98265.94
2023-04-16T06:49:55.789Z,98264.41
2023-04-16T06:54:57.539Z,98266.91
2023-04-16T06:59:59.299Z,98264.88
2023-04-16T07:05:01.152Z,98270.75
2023-04-16T07:10:03.494Z,98267.88
2023-04-16T07:15:06.269Z,98262.88
2023-04-16T07:20:08.953Z,98271.19
2023-04-16T07:25:11.050Z,98273.63
2023-04-16T07:30:12.955Z,98281.97
2023-04-16T07:35:14.809Z,98277.91
2023-04-16T07:40:16.639Z,98275.00
2023-04-16T07:45:19.774Z,98285.69
2023-04-16T07:50:21.583Z,98285.38
2023-04-16T07:55:23.393Z,98293.31
2023-04-16T08:00:25.218Z,98299.81
2023-04-16T08:05:27.765Z,98302.88
2023-04-16T08:10:29.856Z,98299.28
2023-04-16T08:15:31.866Z,98299.72
2023-04-16T08:20:33.783Z,98293.16
2023-04-16T08:25:35.820Z,98302.22
2023-04-16T08:30:37.739Z,98313.69
2023-04-16T08:35:39.874Z,98323.09
2023-04-16T08:40:42.090Z,98328.59
2023-04-16T08:45:44.231Z,98336.56
2023-04-16T08:50:48.339Z,98338.53
2023-04-16T08:55:51.966Z,98342.75
2023-04-16T09:00:55.805Z,98345.81
2023-04-16T09:05:59.303Z,98338.31
2023-04-16T09:11:01.734Z,98349.34
2023-04-16T09:16:04.154Z,98356.16
2023-04-16T09:21:08.109Z,98356.28
2023-04-16T09:26:10.090Z,98359.81
2023-04-16T09:31:16.646Z,98364.63
2023-04-16T09:36:23.159Z,98362.78
2023-04-16T09:41:28.612Z,98362.22
2023-04-16T09:46:32.326Z,98371.66
2023-04-16T09:51:37.848Z,98369.72
2023-04-16T09:56:42.409Z,98372.78
2023-04-16T10:01:46.860Z,98380.25
2023-04-16T10:07:07.629Z,98386.44
2023-04-16T10:12:10.427Z,98388.25
2023-04-16T10:17:12.382Z,98387.25
2023-04-16T10:22:14.317Z,98392.66
2023-04-16T10:27:17.288Z,98392.13
2023-04-16T10:32:22.014Z,98395.66
2023-04-16T10:37:33.256Z,98390.28
2023-04-16T10:42:35.197Z,98390.44
2023-04-16T10:47:40.832Z,98387.50
2023-04-16T10:52:42.667Z,98393.63
2023-04-16T10:57:49.477Z,98397.16
2023-04-16T11:02:55.042Z,98392.53
2023-04-16T11:08:14.550Z,98403.88
2023-04-16T11:13:18.708Z,98390.34
2023-04-16T11:18:20.687Z,98399.63
2023-04-16T11:23:22.615Z,98404.34
2023-04-16T11:28:35.951Z,98408.41
2023-04-16T11:33:38.308Z,98405.91
2023-04-16T11:38:41.833Z,98415.09
2023-04-16T11:43:43.701Z,98402.72
2023-04-16T11:48:51.181Z,98401.91
2023-04-16T11:53:54.379Z,98400.38
2023-04-16T11:59:17.090Z,98404.19
2023-04-16T12:04:21.578Z,98406.06
2023-04-16T12:09:27.615Z,98397.53
2023-04-16T12:14:30.336Z,98405.00
2023-04-16T12:19:32.367Z,98406.00
2023-04-16T12:24:37.044Z,98410.56
2023-04-16T12:29:38.899Z,98414.81
2023-04-16T12:34:51.675Z,98410.84
2023-04-16T12:39:54.432Z,98407.81
2023-04-16T12:44:56.439Z,98406.28
2023-04-16T12:49:59.045Z,98405.09
2023-04-16T12:55:02.271Z,98406.19
2023-04-16T13:00:06.496Z,98406.09
2023-04-16T13:05:09.090Z,98407.53
2023-04-16T13:10:11.099Z,98408.50
2023-04-16T13:15:17.157Z,98408.44
2023-04-16T13:20:19.016Z,98411.56
2023-04-16T13:25:20.922Z,98414.47
2023-04-16T13:30:22.764Z,98420.94
2023-04-16T13:35:24.767Z,98417.34
2023-04-16T13:40:26.639Z,98415.91
2023-04-16T13:45:28.824Z,98413.09
2023-04-16T13:50:31.061Z,98418.13
2023-04-16T13:55:33.008Z,98423.53
2023-04-16T14:00:34.955Z,98426.59
2023-04-16T14:05:37.003Z,98423.81
2023-04-16T14:10:38.870Z,98417.97
2023-04-16T14:15:40.717Z,98431.19
2023-04-16T14:20:42.476Z,98429.75
2023-04-16T14:25:44.504Z,98431.28
2023-04-16T14:30:46.477Z,98422.72
2023-04-16T14:35:50.387Z,98423.72
2023-04-16T14:40:52.389Z,98432.72
2023-04-16T14:45:54.916Z,98426.78
2023-04-16T14:50:56.849Z,98436.13
2023-04-16T14:55:59.128Z,98430.97
2023-04-16T15:01:01.105Z,98438.19
2023-04-16T15:06:03.156Z,98431.78
2023-04-16T15:11:05.196Z,98436.38
2023-04-16T15:16:07.049Z,98444.84
2023-04-16T15:21:10.519Z,98444.47
2023-04-16T15:26:13.856Z,98441.16
2023-04-16T15:31:15.928Z,98444.06
2023-04-16T15:36:18.167Z,98453.69
2023-04-16T15:41:20.105Z,98453.59
2023-04-16T15:46:22.117Z,98461.97
2023-04-16T15:51:24.161Z,98467.72
2023-04-16T15:56:26.594Z,98474.97
2023-04-16T16:01:28.471Z,98482.16
2023-04-16T16:06:31.880Z,98485.00
2023-04-16T16:11:34.062Z,98488.19
2023-04-16T16:16:36.390Z,98491.38
2023-04-16T16:21:38.727Z,98493.06
2023-04-16T16:26:40.655Z,98501.22
2023-04-16T16:31:42.770Z,98509.41
2023-04-16T16:36:47.781Z,98512.66
2023-04-16T16:41:52.327Z,98520.19
2023-04-16T16:46:54.559Z,98515.47
2023-04-16T16:51:56.332Z,98531.81
2023-04-16T16:56:58.809Z,98533.59
2023-04-16T17:02:00.864Z,98535.91
2023-04-16T17:07:03.144Z,98541.78
2023-04-16T17:12:05.694Z,98547.66
2023-04-16T17:17:07.531Z,98550.13
2023-04-16T17:22:10.103Z,98554.22
2023-04-16T17:27:12.114Z,98563.53
2023-04-16T17:32:14.028Z,98564.03
2023-04-16T17:37:16.567Z,98568.91
2023-04-16T17:42:18.944Z,98573.81
2023-04-16T17:47:21.240Z,98574.81
2023-04-16T17:52:23.482Z,98582.94
2023-04-16T17:57:25.333Z,98582.97
2023-04-16T18:02:27.445Z,98586.72
2023-04-16T18:07:29.390Z,98591.44
2023-04-16T18:12:31.338Z,98592.56
2023-04-16T18:17:33.679Z,98602.16
2023-04-16T18:22:35.575Z,98604.13
2023-04-16T18:27:38.077Z,98609.66
2023-04-16T18:37:47.700Z,98613.56
2023-04-16T18:42:49.408Z,98620.38
2023-04-16T18:47:51.305Z,98625.25
2023-04-16T18:52:56.239Z,98631.28
2023-04-16T18:57:58.147Z,98629.66
2023-04-16T19:02:59.926Z,98626.56
2023-04-16T19:08:05.180Z,98629.81
2023-04-16T19:13:06.952Z,98636.16
2023-04-16T19:18:09.049Z,98636.63
2023-04-16T19:23:11.653Z,98641.19
2023-04-16T19:28:13.533Z,98638.09
2023-04-16T19:33:15.591Z,98646.69
2023-04-16T19:38:17.476Z,98644.91
2023-04-16T19:43:19.330Z,98650.13
2023-04-16T19:48:21.566Z,98652.22
2023-04-16T19:53:24.554Z,98646.22
2023-04-16T19:58:26.523Z,98649.28
2023-04-16T20:03:28.491Z,98653.31
2023-04-16T20:08:30.788Z,98656.41
2023-04-16T20:13:32.894Z,98658.34
2023-04-16T20:18:41.712Z,98659.31
2023-04-16T20:23:43.693Z,98657.53
2023-04-16T20:28:45.778Z,98654.94
2023-04-16T20:33:47.619Z,98648.91
2023-04-16T20:38:51.507Z,98648.25
2023-04-16T20:43:54.548Z,98651.69
2023-04-16T20:48:56.416Z,98658.00
2023-04-16T20:53:58.283Z,98656.69
2023-04-16T20:59:00.054Z,98659.47
2023-04-16T21:04:02.122Z,98653.09
2023-04-16T21:09:06.075Z,98662.34
2023-04-16T21:14:07.958Z,98661.38
2023-04-16T21:19:10.056Z,98665.59
2023-04-16T21:24:12.558Z,98661.22
2023-04-16T21:29:14.516Z,98663.66
2023-04-16T21:34:16.614Z,98667.06
2023-04-16T21:39:19.870Z,98681.97
2023-04-16T21:44:21.638Z,98666.38
2023-04-16T21:49:23.750Z,98677.06
2023-04-16T21:54:25.806Z,98674.13
2023-04-16T21:59:27.533Z,98669.75
2023-04-16T22:04:38.593Z,98676.06
2023-04-16T22:09:40.911Z,98666.50
2023-04-16T22:14:52.218Z,98670.88
2023-04-16T22:20:04.953Z,98668.28
2023-04-16T22:25:07.497Z,98668.94
2023-04-16T22:30:13.305Z,98670.41
2023-04-16T22:35:15.627Z,98669.59
2023-04-16T22:40:18.468Z,98667.31
2023-04-16T22:45:20.205Z,98669.41
2023-04-16T22:50:23.224Z,98672.78
2023-04-16T22:55:25.017Z,98668.38
2023-04-16T23:00:27.417Z,98666.91
2023-04-16T23:05:29.399Z,98663.63
2023-04-16T23:10:31.217Z,98663.50
2023-04-16T23:15:33.098Z,98666.59
2023-04-16T23:20:34.981Z,98666.28
2023-04-16T23:25:37.035Z,98668.38
2023-04-16T23:30:38.786Z,98670.47
2023-04-16T23:35:40.584Z,98670.63
2023-04-16T23:40:42.336Z,98670.94
2023-04-16T23:45:44.208Z,98663.13
2023-04-16T23:50:46.129Z,98658.75
2023-04-16T23:55:47.967Z,98659.72
